Terminal Aerodrome Forecast
Issued by NWS Quad Cities IA IL

Home | Current Version | Previous Version | Text Only | Print | Product List | Glossary On
Versions: 1 2 3 4 5 6 7 8 9 10 11 12 13 14 15 16 17 18 19
000
FTUS43 KDVN 192326
TAFDBQ
TAF
KDBQ 192326Z 2000/2024 36006KT P6SM OVC200
     FM200600 04006KT P6SM OVC150
     FM201000 06006KT P6SM OVC120
     FM201400 09006KT P6SM VCSH OVC100
     FM201800 05004KT P6SM VCSH OVC080=

USA.gov is the U.S. government's official web portal to all federal, state and local government web resources and services.